Time;durP1;ratioP1;P1;durP2;ratioP2;P2;SDS_P1;SDS_P2;PMS_P1;PMS_P2;Temp;Humidity;BMP_temperature;BMP_pressure;BME280_temperature;BME280_humidity;BME280_pressure;Samples;Min_cycle;Max_cycle;Signal;HPM_P1;HPM_P2
2023/11/17 00:02:18;;;;;;;;;;;5.40;99.90;;;;;;8345196;28;19971;-71
2023/11/17 00:06:20;;;;;;;;;;;5.30;99.90;;;;;;8360517;28;19925;-70
2023/11/17 00:10:21;;;;;;;;;;;5.30;99.90;;;;;;8357677;28;19928;-71
2023/11/17 00:14:23;;;;;;;;;;;5.20;99.90;;;;;;8362121;28;19929;-70
2023/11/17 00:18:25;;;;;;;;;;;5.20;99.90;;;;;;8357868;28;20031;-71
2023/11/17 00:22:26;;;;;;;;;;;5.20;99.90;;;;;;8362790;28;20335;-71
2023/11/17 00:46:41;;;;;;;;;;;5.10;99.90;;;;;;8361487;28;19979;-71
2023/11/17 00:50:43;;;;;;;;;;;5.10;99.90;;;;;;8362117;28;19928;-71
2023/11/17 00:54:47;;;;;;;;;;;5.10;99.90;;;;;;8364575;28;19928;-71
2023/11/17 00:58:49;;;;;;;;;;;5.10;99.90;;;;;;8361454;28;19972;-71
2023/11/17 01:02:52;;;;;;;;;;;5.10;99.90;;;;;;8360318;28;19944;-71
2023/11/17 01:06:54;;;;;;;;;;;5.10;99.90;;;;;;8369285;28;19935;-71
2023/11/17 01:10:56;;;;;;;;;;;5.10;99.90;;;;;;8347143;28;20365;-70
2023/11/17 01:14:58;;;;;;;;;;;5.10;99.90;;;;;;8342127;28;19932;-71
2023/11/17 01:18:59;;;;;;;;;;;5.10;99.90;;;;;;8353544;28;19924;-70
2023/11/17 01:23:01;;;;;;;;;;;5.10;99.90;;;;;;8351411;28;20396;-71
2023/11/17 01:27:04;;;;;;;;;;;5.10;99.90;;;;;;8354671;28;20362;-71
2023/11/17 01:31:08;;;;;;;;;;;5.10;99.90;;;;;;8338822;28;19982;-70
2023/11/17 01:35:09;;;;;;;;;;;5.10;99.90;;;;;;8345327;28;19925;-70
2023/11/17 01:39:11;;;;;;;;;;;5.10;99.90;;;;;;8351055;28;19970;-71
2023/11/17 01:43:16;;;;;;;;;;;5.10;99.90;;;;;;8357776;28;19950;-71
2023/11/17 01:47:20;;;;;;;;;;;5.10;99.90;;;;;;8367271;28;19978;-71
2023/11/17 01:51:22;;;;;;;;;;;5.10;99.90;;;;;;8376967;28;19925;-71
2023/11/17 01:55:24;;;;;;;;;;;5.10;99.90;;;;;;8380901;28;19940;-70
2023/11/17 01:59:26;;;;;;;;;;;5.10;99.90;;;;;;8376532;28;19924;-71
2023/11/17 02:03:28;;;;;;;;;;;5.10;99.90;;;;;;8371642;28;19928;-70
2023/11/17 02:07:36;;;;;;;;;;;5.10;99.90;;;;;;8380615;28;19948;-70
2023/11/17 02:11:41;;;;;;;;;;;5.10;99.90;;;;;;8378101;28;19975;-71
2023/11/17 02:15:43;;;;;;;;;;;5.00;99.90;;;;;;8378080;28;20311;-71
2023/11/17 02:19:46;;;;;;;;;;;5.00;99.90;;;;;;8373440;28;19924;-71
2023/11/17 02:23:51;;;;;;;;;;;5.00;99.90;;;;;;8372786;28;19936;-70
2023/11/17 02:28:12;;;;;;;;;;;5.10;99.90;;;;;;8376650;28;19926;-71
2023/11/17 02:32:16;;;;;;;;;;;5.00;99.90;;;;;;8379033;28;19924;-71
2023/11/17 02:36:19;;;;;;;;;;;5.00;99.90;;;;;;8376372;28;19924;-71
2023/11/17 02:40:22;;;;;;;;;;;5.00;99.90;;;;;;8375652;28;20358;-70
2023/11/17 02:44:33;;;;;;;;;;;5.00;99.90;;;;;;8363394;28;19933;-70
2023/11/17 02:48:36;;;;;;;;;;;5.00;99.90;;;;;;8363441;28;19933;-70
2023/11/17 02:57:00;;;;;;;;;;;5.00;99.90;;;;;;8381029;28;19928;-71
2023/11/17 03:01:02;;;;;;;;;;;4.90;99.90;;;;;;8371415;28;19974;-70
2023/11/17 03:05:04;;;;;;;;;;;4.90;99.90;;;;;;8377254;28;19925;-70
2023/11/17 03:09:06;;;;;;;;;;;4.90;99.90;;;;;;8350840;28;19981;-70
2023/11/17 03:13:15;;;;;;;;;;;4.90;99.90;;;;;;8349719;28;19924;-71
2023/11/17 03:17:17;;;;;;;;;;;4.90;99.90;;;;;;8350544;28;19929;-70
2023/11/17 03:21:19;;;;;;;;;;;4.90;99.90;;;;;;8368416;28;19971;-71
2023/11/17 03:25:21;;;;;;;;;;;4.90;99.90;;;;;;8383303;28;20312;-71
2023/11/17 03:29:24;;;;;;;;;;;4.80;99.90;;;;;;8376148;28;19939;-71
2023/11/17 03:33:29;;;;;;;;;;;4.80;99.90;;;;;;8370819;28;19925;-71
2023/11/17 03:37:31;;;;;;;;;;;4.80;99.90;;;;;;8377385;28;20367;-71
2023/11/17 03:41:33;;;;;;;;;;;4.80;99.90;;;;;;8372686;28;19947;-71
2023/11/17 03:45:35;;;;;;;;;;;4.70;99.90;;;;;;8379118;28;20327;-70
2023/11/17 03:49:37;;;;;;;;;;;4.70;99.90;;;;;;8378404;28;19924;-71
2023/11/17 03:53:38;;;;;;;;;;;4.70;99.90;;;;;;8355583;28;19928;-70
2023/11/17 03:57:40;;;;;;;;;;;4.70;99.90;;;;;;8380024;28;19925;-71
2023/11/17 04:01:45;;;;;;;;;;;4.70;99.90;;;;;;8348843;28;19929;-71
2023/11/17 04:05:47;;;;;;;;;;;4.70;99.90;;;;;;8341903;28;21151;-71
2023/11/17 04:09:49;;;;;;;;;;;4.70;99.90;;;;;;8353326;28;19929;-71
2023/11/17 04:13:51;;;;;;;;;;;4.70;99.90;;;;;;8345396;28;19924;-71
2023/11/17 04:17:53;;;;;;;;;;;4.70;99.90;;;;;;8325102;28;19929;-70
2023/11/17 04:21:54;;;;;;;;;;;4.80;99.90;;;;;;8343994;28;19925;-70
2023/11/17 04:25:56;;;;;;;;;;;4.80;99.90;;;;;;8353955;28;19951;-70
2023/11/17 04:29:58;;;;;;;;;;;4.80;99.90;;;;;;8350770;28;20296;-70
2023/11/17 04:33:59;;;;;;;;;;;4.80;99.90;;;;;;8340700;28;19956;-70
2023/11/17 04:38:01;;;;;;;;;;;4.80;99.90;;;;;;8345906;28;19971;-70
2023/11/17 04:42:03;;;;;;;;;;;4.80;99.90;;;;;;8356730;28;19929;-70
2023/11/17 04:46:06;;;;;;;;;;;4.80;99.90;;;;;;8349262;28;20376;-70
2023/11/17 04:50:10;;;;;;;;;;;4.80;99.90;;;;;;8355248;28;19929;-71
2023/11/17 04:54:14;;;;;;;;;;;4.80;99.90;;;;;;8355744;28;19933;-71
2023/11/17 05:08:32;;;;;;;;;;;4.80;99.90;;;;;;8341525;28;20050;-70
2023/11/17 05:12:34;;;;;;;;;;;4.80;99.90;;;;;;8337441;28;19925;-70
2023/11/17 05:16:37;;;;;;;;;;;4.80;99.90;;;;;;8328007;28;19985;-70
2023/11/17 05:26:01;;;;;;;;;;;4.90;99.90;;;;;;8345369;28;19920;-71
2023/11/17 05:30:12;;;;;;;;;;;4.90;99.90;;;;;;8350758;28;19954;-70
2023/11/17 05:34:15;;;;;;;;;;;4.90;99.90;;;;;;8340479;28;19924;-71
2023/11/17 05:38:17;;;;;;;;;;;4.90;99.90;;;;;;8332997;28;19928;-70
2023/11/17 05:42:18;;;;;;;;;;;4.90;99.90;;;;;;8351868;28;19925;-70
2023/11/17 05:46:20;;;;;;;;;;;4.90;99.90;;;;;;8342366;28;19929;-71
2023/11/17 05:50:22;;;;;;;;;;;4.90;99.90;;;;;;8344443;28;20488;-71
2023/11/17 05:54:24;;;;;;;;;;;4.90;99.90;;;;;;8350456;28;19925;-71
2023/11/17 05:58:26;;;;;;;;;;;4.80;99.90;;;;;;8330878;28;19932;-71
2023/11/17 06:02:28;;;;;;;;;;;4.90;99.90;;;;;;8351858;28;19925;-71
2023/11/17 06:06:31;;;;;;;;;;;4.90;99.90;;;;;;8304346;28;19933;-70
2023/11/17 06:10:33;;;;;;;;;;;4.90;99.90;;;;;;8311842;28;19987;-71
2023/11/17 06:14:35;;;;;;;;;;;4.90;99.90;;;;;;8342446;28;19929;-71
2023/11/17 06:18:37;;;;;;;;;;;4.90;99.90;;;;;;8346840;28;19931;-71
2023/11/17 06:22:38;;;;;;;;;;;4.90;99.90;;;;;;8360077;28;19973;-70
2023/11/17 06:26:43;;;;;;;;;;;4.80;99.90;;;;;;8345175;28;20011;-70
2023/11/17 06:30:45;;;;;;;;;;;4.80;99.90;;;;;;8350344;28;19925;-70
2023/11/17 06:34:47;;;;;;;;;;;4.80;99.90;;;;;;8353140;28;19948;-70
2023/11/17 06:38:49;;;;;;;;;;;4.80;99.90;;;;;;8356508;28;19929;-71
2023/11/17 06:42:51;;;;;;;;;;;4.80;99.90;;;;;;8352792;28;19933;-71
2023/11/17 06:46:53;;;;;;;;;;;4.80;99.90;;;;;;8350517;28;19929;-70
2023/11/17 06:50:55;;;;;;;;;;;4.70;99.90;;;;;;8355140;28;19983;-70
2023/11/17 06:54:56;;;;;;;;;;;4.70;99.90;;;;;;8354264;28;19925;-71
2023/11/17 06:58:59;;;;;;;;;;;4.70;99.90;;;;;;8365297;28;19924;-70
2023/11/17 07:03:00;;;;;;;;;;;4.60;99.90;;;;;;8361366;28;20011;-70
2023/11/17 07:07:04;;;;;;;;;;;4.60;99.90;;;;;;8355068;28;20140;-70
2023/11/17 07:11:11;;;;;;;;;;;4.60;99.90;;;;;;8344630;28;19967;-70
2023/11/17 07:15:33;;;;;;;;;;;4.60;99.90;;;;;;8368445;28;19965;-70
2023/11/17 07:19:35;;;;;;;;;;;4.60;99.90;;;;;;8359980;28;19924;-70
2023/11/17 07:23:38;;;;;;;;;;;4.60;99.90;;;;;;8348823;28;19924;-71
2023/11/17 07:27:40;;;;;;;;;;;4.60;99.90;;;;;;8355291;28;19925;-71
2023/11/17 07:36:47;;;;;;;;;;;4.60;99.90;;;;;;8363418;28;19939;-70
2023/11/17 07:40:48;;;;;;;;;;;4.60;99.90;;;;;;8364777;28;20298;-70
2023/11/17 07:44:50;;;;;;;;;;;4.70;99.90;;;;;;8360143;28;19929;-71
2023/11/17 07:48:52;;;;;;;;;;;4.60;99.90;;;;;;8365569;28;20363;-71
2023/11/17 07:52:56;;;;;;;;;;;4.70;99.90;;;;;;8367221;28;20556;-70
2023/11/17 07:56:58;;;;;;;;;;;4.70;99.90;;;;;;8365069;28;19932;-70
2023/11/17 08:01:00;;;;;;;;;;;4.80;99.90;;;;;;8351875;28;19936;-70
2023/11/17 08:05:04;;;;;;;;;;;4.80;99.90;;;;;;8360748;28;20430;-71
2023/11/17 08:09:09;;;;;;;;;;;4.90;99.90;;;;;;8379496;28;19936;-70
2023/11/17 08:13:11;;;;;;;;;;;5.00;99.90;;;;;;8379056;28;19925;-70
2023/11/17 08:17:13;;;;;;;;;;;5.10;99.90;;;;;;8385029;28;19931;-71
2023/11/17 08:21:15;;;;;;;;;;;5.20;99.90;;;;;;8399200;28;20375;-70
2023/11/17 08:25:16;;;;;;;;;;;5.40;99.90;;;;;;8392865;28;19925;-70
2023/11/17 08:29:18;;;;;;;;;;;5.40;99.90;;;;;;8386213;28;19931;-70
2023/11/17 08:33:23;;;;;;;;;;;5.50;99.90;;;;;;8389488;28;19964;-70
2023/11/17 08:37:25;;;;;;;;;;;5.60;99.90;;;;;;8389248;28;19932;-70
2023/11/17 08:41:27;;;;;;;;;;;5.70;99.90;;;;;;8375380;28;19963;-72
2023/11/17 08:45:29;;;;;;;;;;;5.80;99.90;;;;;;8387566;28;19932;-70
2023/11/17 08:49:36;;;;;;;;;;;5.90;99.90;;;;;;8391566;28;19928;-70
2023/11/17 08:53:38;;;;;;;;;;;6.00;99.90;;;;;;8388147;28;19993;-70
2023/11/17 08:57:44;;;;;;;;;;;6.10;99.90;;;;;;8390225;28;19931;-70
2023/11/17 09:01:45;;;;;;;;;;;6.20;99.90;;;;;;8391029;28;19978;-71
2023/11/17 09:05:48;;;;;;;;;;;6.40;99.90;;;;;;8378607;28;19943;-70
2023/11/17 09:09:50;;;;;;;;;;;6.60;99.90;;;;;;8388713;28;19925;-70
2023/11/17 09:13:52;;;;;;;;;;;6.70;99.90;;;;;;8376909;28;20156;-70
2023/11/17 09:17:54;;;;;;;;;;;6.70;99.90;;;;;;8372809;28;19932;-70
2023/11/17 09:21:56;;;;;;;;;;;6.80;99.90;;;;;;8390561;28;19932;-70
2023/11/17 09:25:57;;;;;;;;;;;6.90;99.90;;;;;;8390665;28;20240;-70
2023/11/17 09:29:59;;;;;;;;;;;7.00;99.90;;;;;;8388612;28;19965;-70
2023/11/17 09:34:01;;;;;;;;;;;7.10;99.90;;;;;;8388138;28;19955;-71
2023/11/17 09:38:09;;;;;;;;;;;7.20;99.90;;;;;;8386521;28;19924;-70
2023/11/17 09:42:12;;;;;;;;;;;7.30;99.90;;;;;;8386747;28;19928;-71
2023/11/17 09:46:16;;;;;;;;;;;7.30;99.90;;;;;;8391456;28;19978;-71
2023/11/17 09:50:19;;;;;;;;;;;7.40;99.90;;;;;;8384806;28;19924;-70
2023/11/17 09:54:23;;;;;;;;;;;7.40;99.90;;;;;;8385699;28;19940;-71
2023/11/17 09:58:27;;;;;;;;;;;7.50;99.90;;;;;;8385674;28;19931;-71
2023/11/17 10:02:32;;;;;;;;;;;7.60;99.90;;;;;;8389323;28;20382;-70
2023/11/17 10:06:34;;;;;;;;;;;7.60;99.90;;;;;;8388868;28;20010;-71
2023/11/17 10:10:36;;;;;;;;;;;7.70;99.90;;;;;;8386077;28;19971;-71
2023/11/17 10:14:40;;;;;;;;;;;7.80;99.90;;;;;;8386320;28;20004;-70
2023/11/17 10:18:43;;;;;;;;;;;7.90;99.90;;;;;;8388642;28;20287;-71
2023/11/17 10:22:49;;;;;;;;;;;8.00;99.90;;;;;;8388919;28;19968;-71
2023/11/17 10:26:51;;;;;;;;;;;8.10;99.90;;;;;;8400768;28;20396;-70
2023/11/17 10:30:54;;;;;;;;;;;8.20;99.90;;;;;;8388670;28;19930;-71
2023/11/17 10:35:11;;;;;;;;;;;8.40;99.90;;;;;;8387412;28;19924;-71
2023/11/17 10:39:18;;;;;;;;;;;8.50;99.90;;;;;;8387978;28;19931;-72
2023/11/17 10:43:20;;;;;;;;;;;8.50;99.90;;;;;;8384955;28;19954;-71
2023/11/17 10:47:22;;;;;;;;;;;8.70;99.90;;;;;;8390125;28;19931;-71
2023/11/17 10:51:23;;;;;;;;;;;8.70;99.90;;;;;;8386128;28;19924;-70
2023/11/17 10:55:34;;;;;;;;;;;8.80;99.90;;;;;;8388643;28;19931;-71
2023/11/17 10:59:36;;;;;;;;;;;8.90;99.90;;;;;;8383269;28;19982;-71
2023/11/17 11:03:49;;;;;;;;;;;9.50;99.90;;;;;;8384713;28;19925;-71
2023/11/17 11:07:52;;;;;;;;;;;10.70;99.90;;;;;;8386715;28;19945;-71
2023/11/17 11:11:53;;;;;;;;;;;11.60;99.90;;;;;;8383304;28;19932;-71
2023/11/17 11:15:59;;;;;;;;;;;12.00;99.90;;;;;;8380548;28;20096;-71
2023/11/17 11:20:04;;;;;;;;;;;12.10;99.90;;;;;;8381643;28;20013;-70
2023/11/17 11:24:22;;;;;;;;;;;12.50;99.90;;;;;;8383531;28;19932;-70
2023/11/17 11:28:34;;;;;;;;;;;12.30;99.90;;;;;;8381233;28;19931;-70
2023/11/17 11:32:35;;;;;;;;;;;11.80;99.90;;;;;;8384902;28;19968;-71
2023/11/17 11:36:37;;;;;;;;;;;11.30;99.90;;;;;;8386518;28;19928;-70
2023/11/17 11:40:43;;;;;;;;;;;11.00;99.90;;;;;;8399120;28;19924;-71
2023/11/17 11:44:45;;;;;;;;;;;10.70;99.90;;;;;;8385731;28;20284;-71
2023/11/17 11:48:49;;;;;;;;;;;10.60;99.90;;;;;;8403783;28;19924;-70
2023/11/17 11:53:11;;;;;;;;;;;10.60;99.90;;;;;;8385748;28;19936;-70
2023/11/17 11:57:33;;;;;;;;;;;10.50;99.90;;;;;;8387996;28;19939;-70
2023/11/17 12:01:36;;;;;;;;;;;10.50;99.90;;;;;;8379063;28;19928;-70
2023/11/17 12:05:44;;;;;;;;;;;10.50;99.90;;;;;;8384831;28;19929;-71
2023/11/17 12:09:46;;;;;;;;;;;10.60;99.90;;;;;;8378993;28;19931;-71
2023/11/17 12:13:53;;;;;;;;;;;10.60;99.90;;;;;;8385858;28;20375;-71
2023/11/17 12:18:02;;;;;;;;;;;10.60;99.90;;;;;;8379834;28;19936;-71
2023/11/17 12:22:04;;;;;;;;;;;10.60;99.90;;;;;;8367048;28;19933;-70
2023/11/17 12:26:06;;;;;;;;;;;10.60;99.90;;;;;;8390779;28;19962;-71
2023/11/17 12:30:13;;;;;;;;;;;10.60;99.90;;;;;;8390993;28;22337;-71
2023/11/17 12:34:14;;;;;;;;;;;10.60;99.90;;;;;;8403754;28;19943;-71
2023/11/17 12:38:16;;;;;;;;;;;10.60;99.90;;;;;;8393643;28;19936;-70
2023/11/17 12:42:18;;;;;;;;;;;10.60;99.90;;;;;;8377565;28;19978;-71
2023/11/17 12:46:20;;;;;;;;;;;10.70;99.90;;;;;;8388861;28;19933;-71
2023/11/17 12:50:22;;;;;;;;;;;10.90;99.90;;;;;;8390920;28;20567;-70
2023/11/17 12:54:23;;;;;;;;;;;11.40;99.90;;;;;;8392577;28;20403;-71
2023/11/17 12:58:25;;;;;;;;;;;11.60;99.90;;;;;;8390530;28;19932;-71
2023/11/17 13:02:27;;;;;;;;;;;11.70;99.90;;;;;;8388456;28;19932;-70
2023/11/17 13:06:29;;;;;;;;;;;11.90;99.90;;;;;;8391710;28;19939;-71
2023/11/17 13:10:30;;;;;;;;;;;11.90;99.90;;;;;;8389285;28;19931;-71
2023/11/17 13:14:34;;;;;;;;;;;11.60;99.90;;;;;;8386813;28;20299;-71
2023/11/17 13:18:41;;;;;;;;;;;11.50;99.90;;;;;;8385921;28;19983;-71
2023/11/17 13:22:43;;;;;;;;;;;11.40;99.90;;;;;;8388049;28;20566;-71
2023/11/17 13:26:45;;;;;;;;;;;11.30;99.90;;;;;;8390994;28;19960;-71
2023/11/17 13:30:47;;;;;;;;;;;11.30;99.90;;;;;;8391922;28;19932;-70
2023/11/17 13:34:55;;;;;;;;;;;11.30;99.90;;;;;;8387412;28;19970;-70
2023/11/17 13:39:00;;;;;;;;;;;11.30;99.90;;;;;;8386733;28;19924;-70
2023/11/17 13:43:09;;;;;;;;;;;11.30;99.90;;;;;;8385586;28;19939;-70
2023/11/17 13:47:12;;;;;;;;;;;11.20;99.90;;;;;;8387607;28;19933;-70
2023/11/17 13:51:15;;;;;;;;;;;11.10;99.90;;;;;;8390101;28;19932;-70
2023/11/17 13:55:18;;;;;;;;;;;11.10;99.90;;;;;;8386320;28;19925;-71
2023/11/17 13:59:23;;;;;;;;;;;11.10;99.90;;;;;;8388716;28;20329;-70
2023/11/17 14:03:25;;;;;;;;;;;11.10;99.90;;;;;;8387826;28;20347;-70
2023/11/17 14:07:26;;;;;;;;;;;11.00;99.90;;;;;;8385688;28;20387;-70
2023/11/17 14:11:28;;;;;;;;;;;11.00;99.90;;;;;;8385603;28;20310;-70
2023/11/17 14:15:31;;;;;;;;;;;11.00;99.90;;;;;;8383600;28;19931;-70
2023/11/17 14:19:34;;;;;;;;;;;11.00;99.90;;;;;;8402868;28;19924;-71
2023/11/17 14:23:35;;;;;;;;;;;11.20;99.90;;;;;;8387030;28;19928;-71
2023/11/17 14:27:38;;;;;;;;;;;11.30;99.90;;;;;;8400014;28;20384;-71
2023/11/17 14:31:41;;;;;;;;;;;11.50;99.90;;;;;;8386236;28;19933;-70
2023/11/17 14:35:42;;;;;;;;;;;12.00;99.90;;;;;;8388575;28;19954;-70
2023/11/17 14:39:44;;;;;;;;;;;12.70;99.90;;;;;;8383310;28;20388;-71
2023/11/17 14:43:46;;;;;;;;;;;13.20;99.90;;;;;;8386013;28;19924;-71
2023/11/17 14:47:47;;;;;;;;;;;13.50;99.90;;;;;;8386013;28;19936;-71
2023/11/17 14:51:50;;;;;;;;;;;13.50;99.90;;;;;;8387604;28;19932;-71
2023/11/17 14:55:51;;;;;;;;;;;13.50;99.90;;;;;;8388578;28;19924;-71
2023/11/17 14:59:53;;;;;;;;;;;13.70;99.90;;;;;;8380529;28;20407;-71
2023/11/17 15:03:55;;;;;;;;;;;13.80;99.90;;;;;;8385265;28;19928;-70
2023/11/17 15:07:57;;;;;;;;;;;13.80;99.90;;;;;;8384730;28;19932;-71
2023/11/17 15:11:58;;;;;;;;;;;13.50;99.90;;;;;;8386133;28;19980;-71
2023/11/17 15:16:04;;;;;;;;;;;13.00;99.90;;;;;;8386503;28;19933;-70
2023/11/17 15:20:09;;;;;;;;;;;12.60;99.90;;;;;;8369375;28;19929;-71
2023/11/17 15:24:20;;;;;;;;;;;12.40;99.90;;;;;;8385689;28;20391;-70
2023/11/17 15:28:22;;;;;;;;;;;12.00;99.90;;;;;;8385188;28;19939;-70
2023/11/17 15:32:24;;;;;;;;;;;11.70;99.90;;;;;;8388554;28;19924;-70
2023/11/17 15:36:27;;;;;;;;;;;11.30;99.90;;;;;;8387855;28;19924;-71
2023/11/17 15:40:28;;;;;;;;;;;10.90;99.90;;;;;;8389468;28;19986;-71
2023/11/17 15:44:31;;;;;;;;;;;10.50;99.90;;;;;;8383150;28;19934;-70
2023/11/17 15:48:34;;;;;;;;;;;10.20;99.90;;;;;;8378505;28;19936;-70
2023/11/17 15:52:36;;;;;;;;;;;9.90;99.90;;;;;;8383221;28;20002;-70
2023/11/17 15:56:37;;;;;;;;;;;9.60;99.90;;;;;;8372989;28;19938;-70
2023/11/17 16:00:45;;;;;;;;;;;9.40;99.90;;;;;;8378759;28;20209;-71
2023/11/17 16:04:49;;;;;;;;;;;9.20;99.90;;;;;;8387610;28;19964;-71
2023/11/17 16:08:51;;;;;;;;;;;9.00;99.90;;;;;;8385466;28;20403;-71
2023/11/17 16:12:53;;;;;;;;;;;8.90;99.90;;;;;;8384277;28;19966;-71
2023/11/17 16:16:57;;;;;;;;;;;8.70;99.90;;;;;;8383753;28;20326;-70
2023/11/17 16:20:58;;;;;;;;;;;8.60;99.90;;;;;;8377728;28;19929;-71
2023/11/17 16:25:00;;;;;;;;;;;8.50;99.90;;;;;;8396160;28;20388;-71
2023/11/17 16:29:05;;;;;;;;;;;8.40;99.90;;;;;;8380584;28;20351;-71
2023/11/17 16:33:07;;;;;;;;;;;8.30;99.90;;;;;;8381931;28;20326;-71
2023/11/17 16:37:12;;;;;;;;;;;8.20;99.90;;;;;;8386552;28;19932;-70
2023/11/17 16:41:14;;;;;;;;;;;8.10;99.90;;;;;;8363239;28;19940;-71
2023/11/17 16:45:16;;;;;;;;;;;8.00;99.90;;;;;;8369795;28;19933;-71
2023/11/17 16:49:18;;;;;;;;;;;8.00;99.90;;;;;;8366190;28;19935;-71
2023/11/17 16:53:20;;;;;;;;;;;7.90;99.90;;;;;;8359208;28;19928;-70
2023/11/17 16:57:22;;;;;;;;;;;7.90;99.90;;;;;;8362174;28;20011;-70
2023/11/17 17:01:24;;;;;;;;;;;7.80;99.90;;;;;;8361944;28;19929;-71
2023/11/17 17:05:26;;;;;;;;;;;7.70;99.90;;;;;;8375473;28;19932;-71
2023/11/17 17:09:28;;;;;;;;;;;7.60;99.90;;;;;;8365577;28;20392;-71
2023/11/17 17:13:30;;;;;;;;;;;7.50;99.90;;;;;;8360632;28;19960;-71
2023/11/17 17:17:33;;;;;;;;;;;7.40;99.90;;;;;;8356393;28;19933;-71
2023/11/17 17:21:34;;;;;;;;;;;7.40;99.90;;;;;;8360710;28;19939;-71
2023/11/17 17:25:39;;;;;;;;;;;7.30;99.90;;;;;;8359380;28;19936;-71
2023/11/17 17:29:42;;;;;;;;;;;7.30;99.90;;;;;;8359382;28;19924;-71
2023/11/17 17:33:44;;;;;;;;;;;7.20;99.90;;;;;;8360460;28;19935;-71
2023/11/17 17:37:46;;;;;;;;;;;7.10;99.90;;;;;;8360779;28;19936;-71
2023/11/17 17:41:48;;;;;;;;;;;7.10;99.90;;;;;;8362021;28;19930;-71
2023/11/17 17:45:49;;;;;;;;;;;7.00;99.90;;;;;;8361079;28;19948;-70
2023/11/17 17:49:51;;;;;;;;;;;7.00;99.90;;;;;;8361148;28;20017;-71
2023/11/17 17:53:53;;;;;;;;;;;6.90;99.90;;;;;;8350727;28;20023;-71
2023/11/17 17:57:55;;;;;;;;;;;6.80;99.90;;;;;;8368219;28;20261;-70
2023/11/17 18:01:59;;;;;;;;;;;6.70;99.90;;;;;;8358537;28;19939;-71
2023/11/17 18:06:02;;;;;;;;;;;6.70;99.90;;;;;;8360305;28;20453;-71
2023/11/17 18:10:05;;;;;;;;;;;6.60;99.90;;;;;;8360619;28;20019;-71
2023/11/17 18:14:06;;;;;;;;;;;6.50;99.90;;;;;;8362684;28;19963;-71
2023/11/17 18:18:08;;;;;;;;;;;6.50;99.90;;;;;;8368405;28;19933;-70
2023/11/17 18:22:10;;;;;;;;;;;6.40;99.90;;;;;;8359797;28;19933;-71
2023/11/17 18:26:12;;;;;;;;;;;6.40;99.90;;;;;;8356115;28;19940;-70
2023/11/17 18:30:26;;;;;;;;;;;6.30;99.90;;;;;;8359441;28;19936;-70
2023/11/17 18:34:27;;;;;;;;;;;6.30;99.90;;;;;;8357673;28;19979;-71
2023/11/17 18:38:29;;;;;;;;;;;6.20;99.90;;;;;;8374027;28;19947;-71
2023/11/17 18:42:32;;;;;;;;;;;6.10;99.90;;;;;;8357750;28;19994;-70
2023/11/17 18:46:34;;;;;;;;;;;6.10;99.90;;;;;;8373439;28;19929;-70
2023/11/17 18:50:38;;;;;;;;;;;6.00;99.90;;;;;;8360522;28;19932;-70
2023/11/17 18:59:43;;;;;;;;;;;5.90;99.90;;;;;;8354403;28;19963;-71
2023/11/17 19:03:44;;;;;;;;;;;5.80;99.90;;;;;;8359595;28;19929;-71
2023/11/17 19:07:47;;;;;;;;;;;5.80;99.90;;;;;;8360905;28;19928;-71
2023/11/17 19:27:14;;;;;;;;;;;5.60;99.90;;;;;;8367075;28;19981;-71
2023/11/17 19:31:16;;;;;;;;;;;5.60;99.90;;;;;;8363245;28;19986;-71
2023/11/17 19:35:21;;;;;;;;;;;5.60;99.90;;;;;;8372108;28;19925;-70
2023/11/17 19:39:26;;;;;;;;;;;5.60;99.90;;;;;;8371758;28;19928;-71
2023/11/17 19:43:28;;;;;;;;;;;5.60;99.90;;;;;;8359309;28;19967;-70
2023/11/17 19:47:29;;;;;;;;;;;5.60;99.90;;;;;;8358490;28;19940;-72
2023/11/17 19:51:31;;;;;;;;;;;5.50;99.90;;;;;;8361828;28;20281;-71
2023/11/17 19:55:33;;;;;;;;;;;5.60;99.90;;;;;;8372849;28;19978;-70
2023/11/17 19:59:34;;;;;;;;;;;5.50;99.90;;;;;;8373640;28;19928;-70
2023/11/17 20:03:36;;;;;;;;;;;5.50;99.90;;;;;;8384804;28;19951;-70
2023/11/17 20:07:38;;;;;;;;;;;5.50;99.90;;;;;;8362349;28;19947;-70
2023/11/17 20:11:42;;;;;;;;;;;5.50;99.90;;;;;;8358604;28;20437;-70
2023/11/17 20:15:45;;;;;;;;;;;5.50;99.90;;;;;;8361370;28;19932;-71
2023/11/17 20:19:47;;;;;;;;;;;5.50;99.90;;;;;;8361479;28;20406;-70
2023/11/17 20:23:48;;;;;;;;;;;5.40;99.90;;;;;;8359431;28;19928;-71
2023/11/17 20:27:51;;;;;;;;;;;5.50;99.90;;;;;;8363319;28;19924;-71
2023/11/17 20:31:53;;;;;;;;;;;5.40;99.90;;;;;;8363885;28;19928;-71
2023/11/17 20:35:55;;;;;;;;;;;5.50;99.90;;;;;;8379413;28;19935;-70
2023/11/17 20:39:56;;;;;;;;;;;5.50;99.90;;;;;;8359808;28;19951;-70
2023/11/17 20:43:58;;;;;;;;;;;5.50;99.90;;;;;;8362198;28;20392;-70
2023/11/17 20:48:00;;;;;;;;;;;5.60;99.90;;;;;;8362980;28;20299;-70
2023/11/17 20:52:02;;;;;;;;;;;5.60;99.90;;;;;;8357778;28;19937;-72
2023/11/17 20:56:05;;;;;;;;;;;5.60;99.90;;;;;;8357880;28;19929;-71
2023/11/17 21:00:10;;;;;;;;;;;5.70;99.90;;;;;;8359469;28;19929;-71
2023/11/17 21:04:14;;;;;;;;;;;5.70;99.90;;;;;;8361578;28;19943;-70
2023/11/17 21:18:24;;;;;;;;;;;5.60;99.90;;;;;;8360269;28;20299;-71
2023/11/17 21:22:26;;;;;;;;;;;5.70;99.90;;;;;;8373812;28;19928;-71
2023/11/17 21:26:27;;;;;;;;;;;5.70;99.90;;;;;;8361878;28;20014;-70
2023/11/17 21:30:32;;;;;;;;;;;5.60;99.90;;;;;;8358517;28;20351;-71
2023/11/17 21:34:35;;;;;;;;;;;5.70;99.90;;;;;;8355767;28;19924;-71
2023/11/17 21:38:37;;;;;;;;;;;5.70;99.90;;;;;;8358608;28;20353;-71
2023/11/17 21:42:43;;;;;;;;;;;5.60;99.90;;;;;;8357941;28;19956;-71
2023/11/17 21:46:44;;;;;;;;;;;5.60;99.90;;;;;;8363072;28;20406;-71
2023/11/17 21:50:46;;;;;;;;;;;5.60;99.90;;;;;;8359014;28;19925;-71
2023/11/17 21:54:48;;;;;;;;;;;5.60;99.90;;;;;;8356364;28;19978;-71
2023/11/17 21:58:49;;;;;;;;;;;5.60;99.90;;;;;;8359074;28;19925;-71
2023/11/17 22:02:51;;;;;;;;;;;5.60;99.90;;;;;;8371730;28;20311;-71
2023/11/17 22:11:57;;;;;;;;;;;5.60;99.90;;;;;;8382469;28;19932;-70
2023/11/17 22:15:59;;;;;;;;;;;5.60;99.90;;;;;;8381801;28;19932;-71
2023/11/17 22:20:12;;;;;;;;;;;5.60;99.90;;;;;;8398271;28;19920;-72
2023/11/17 22:24:16;;;;;;;;;;;5.60;99.90;;;;;;8390076;28;19924;-72
2023/11/17 22:28:18;;;;;;;;;;;5.60;99.90;;;;;;8391680;28;20228;-72
2023/11/17 22:32:20;;;;;;;;;;;5.60;99.90;;;;;;8409163;28;19924;-73
2023/11/17 22:41:25;;;;;;;;;;;5.70;99.90;;;;;;8388383;28;19919;-72
2023/11/17 22:45:26;;;;;;;;;;;5.80;99.90;;;;;;8389822;28;19925;-72
2023/11/17 22:49:29;;;;;;;;;;;5.80;99.90;;;;;;8390814;28;19978;-71
2023/11/17 22:53:31;;;;;;;;;;;5.90;99.90;;;;;;8392439;28;19933;-72
2023/11/17 22:57:33;;;;;;;;;;;5.80;99.90;;;;;;8390342;28;19986;-72
2023/11/17 23:06:39;;;;;;;;;;;5.90;99.90;;;;;;8387418;28;19970;-72
2023/11/17 23:10:40;;;;;;;;;;;6.00;99.90;;;;;;8385080;28;20433;-72
2023/11/17 23:14:43;;;;;;;;;;;6.00;99.90;;;;;;8398051;28;19932;-72
2023/11/17 23:18:45;;;;;;;;;;;6.00;99.90;;;;;;8407190;28;19929;-72
2023/11/17 23:22:46;;;;;;;;;;;6.00;99.90;;;;;;8414226;28;19967;-72
2023/11/17 23:26:49;;;;;;;;;;;6.00;99.90;;;;;;8441485;28;19924;-72
2023/11/17 23:30:51;;;;;;;;;;;6.00;99.90;;;;;;8403915;28;19928;-72
2023/11/17 23:34:52;;;;;;;;;;;5.90;99.90;;;;;;8398945;28;19932;-72
2023/11/17 23:38:54;;;;;;;;;;;5.90;99.90;;;;;;8395208;28;19924;-71
2023/11/17 23:42:56;;;;;;;;;;;5.90;99.90;;;;;;8408665;28;19941;-71
2023/11/17 23:57:05;;;;;;;;;;;5.70;99.90;;;;;;8407817;28;19923;-72
